Etusivu
METAR-TAF:

METAR-TAF

Lentoasemat :

Salem-Leckrone Airport

Salem, Illinois, Yhdysvallat

Leveyspiiri: 38-38-34N, Pituuspiiri: 088-57-51W, korkeus merenpinnasta: 175 m

Tämänhetkinen sää

Tämä raportti tehtiin 17 minuuttia sitten, kello 15.35 UTC
Tuuli 6 kn lounaasta
Lämpötila 3°C
Kosteus 52%
Ilmanpaine 1030 hPa
Näkyvyys: 16.1 km
selkeää

METAR: KSLO 221535Z AUTO 22006KT 10SM CLR 03/M06 A3041 RMK AO2 T00321060

Aika: 09:52 (15:52 UTC)


TAF: puuttuu

Säähavainnot ja -ennusteet yli 4000 lentoasemalta (METAR- ja TAF-raportit).

Käytössä olevat sääasemat on merkitty karttaan keltaisilla ja punaisilla pisteillä.

Aseta hiiri pisteen päälle nähdäksesi sääaseman nimen.

Klikkaa sitten nähdäksesi säähavainnot ja -ennusteet.

Kartan vaihtaminen: klikkaa mustalla rastilla varustettuja vihreitä pisteitä, niin voit zoomata sisään; viivalla varustettua vihreää pistettä, niin voit zoomata ulos tai vihreitä nuolia, niin pääset viereisille kartoille.


METAR-TAF: